createdAt,value
2018-07-08T00:00:41.249Z,87.62
2018-07-08T00:01:41.330Z,87.81
2018-07-08T00:02:41.195Z,87.62
2018-07-08T00:03:41.233Z,88.38
2018-07-08T00:04:41.157Z,88.48
2018-07-08T00:05:41.146Z,88.19
2018-07-08T00:06:41.106Z,88.29
2018-07-08T00:07:42.192Z,88.38
2018-07-08T00:08:41.066Z,88.19
2018-07-08T00:09:41.097Z,88.19
2018-07-08T00:10:41.024Z,88.38
2018-07-08T00:11:41.123Z,88.57
2018-07-08T00:12:41.005Z,88.38
2018-07-08T00:13:40.997Z,88.95
2018-07-08T00:14:40.929Z,88.48
2018-07-08T00:15:41.013Z,88.48
2018-07-08T00:16:40.880Z,88.86
2018-07-08T00:17:40.923Z,89.05
2018-07-08T00:18:40.834Z,88.09
2018-07-08T00:19:40.844Z,88.19
2018-07-08T00:20:40.799Z,88.38
2018-07-08T00:21:40.794Z,88.86
2018-07-08T00:22:40.955Z,89.05
2018-07-08T00:24:26.517Z,88.86
2018-07-08T00:25:26.464Z,89.29
2018-07-08T00:26:26.682Z,88.91
2018-07-08T00:27:26.412Z,89.62
2018-07-08T00:28:26.548Z,89.01
2018-07-08T00:29:26.367Z,89.58
2018-07-08T00:30:26.603Z,89.96
2018-07-08T00:31:26.322Z,89.67
2018-07-08T00:32:26.300Z,89.96
2018-07-08T00:33:26.487Z,90.06
2018-07-08T00:34:26.251Z,90.63
2018-07-08T00:35:26.284Z,90.82
2018-07-08T00:36:26.216Z,90.44
2018-07-08T00:37:26.298Z,90.92
2018-07-08T00:38:26.179Z,91.20
2018-07-08T00:39:26.214Z,91.11
2018-07-08T00:40:26.123Z,91.68
2018-07-08T00:41:26.124Z,91.59
2018-07-08T00:42:26.070Z,91.78
2018-07-08T00:43:26.137Z,91.78
2018-07-08T00:44:26.025Z,91.97
2018-07-08T00:45:26.049Z,91.97
2018-07-08T00:46:25.985Z,91.97
2018-07-08T00:47:26.079Z,92.07
2018-07-08T00:48:25.949Z,91.68
2018-07-08T00:49:26.053Z,92.07
2018-07-08T00:50:25.889Z,92.25
2018-07-08T00:51:25.888Z,92.35
2018-07-08T00:52:25.838Z,91.78
2018-07-08T00:53:25.892Z,92.64
2018-07-08T00:54:25.797Z,92.40
2018-07-08T00:55:25.800Z,92.59
2018-07-08T00:56:25.746Z,92.83
2018-07-08T00:57:25.813Z,92.79
2018-07-08T00:58:25.707Z,92.83
2018-07-08T00:59:25.723Z,93.07
2018-07-08T01:00:25.653Z,93.26
2018-07-08T01:01:25.738Z,93.65
2018-07-08T01:02:25.612Z,93.16
2018-07-08T01:03:25.647Z,92.79
2018-07-08T01:04:25.575Z,93.07
2018-07-08T01:05:25.667Z,93.65
2018-07-08T01:06:25.540Z,93.16
2018-07-08T01:07:25.572Z,93.84
2018-07-08T01:08:25.476Z,93.65
2018-07-08T01:09:25.481Z,93.26
2018-07-08T01:10:25.436Z,93.36
2018-07-08T01:11:25.488Z,93.07
2018-07-08T01:12:25.383Z,93.74
2018-07-08T01:13:25.405Z,94.12
2018-07-08T01:14:25.343Z,93.74
2018-07-08T01:15:25.420Z,93.93
2018-07-08T01:16:25.285Z,93.74
2018-07-08T01:17:25.334Z,94.02
2018-07-08T01:18:25.246Z,94.12
2018-07-08T01:19:25.243Z,94.22
2018-07-08T01:20:25.213Z,93.55
2018-07-08T01:21:25.256Z,94.41
2018-07-08T01:22:25.197Z,94.12
2018-07-08T01:24:11.442Z,94.12
2018-07-08T01:25:11.449Z,94.41
2018-07-08T01:26:11.366Z,94.22
2018-07-08T01:27:11.369Z,94.31
2018-07-08T01:28:11.321Z,94.31
2018-07-08T01:29:11.379Z,94.12
2018-07-08T01:30:11.276Z,94.22
2018-07-08T01:31:11.289Z,94.60
2018-07-08T01:32:11.235Z,94.22
2018-07-08T01:33:11.219Z,94.31
2018-07-08T01:34:11.194Z,94.89
2018-07-08T01:35:11.233Z,94.60
2018-07-08T01:36:11.154Z,94.89
2018-07-08T01:37:11.227Z,95.27
2018-07-08T01:38:11.117Z,94.89
2018-07-08T01:39:11.129Z,94.51
2018-07-08T01:40:11.037Z,94.60
2018-07-08T01:41:11.041Z,95.17
2018-07-08T01:42:11.000Z,95.36
2018-07-08T01:43:11.063Z,95.36
2018-07-08T01:44:10.944Z,94.98
2018-07-08T01:45:10.968Z,94.41
2018-07-08T01:46:10.899Z,94.70
2018-07-08T01:47:10.993Z,95.46
2018-07-08T01:48:10.860Z,95.27
2018-07-08T01:49:10.903Z,95.17
2018-07-08T01:50:10.831Z,95.17
2018-07-08T01:51:10.800Z,95.07
2018-07-08T01:52:10.752Z,95.17
2018-07-08T01:53:10.815Z,95.17
2018-07-08T01:54:10.708Z,95.07
2018-07-08T01:55:10.732Z,95.65
2018-07-08T01:56:10.673Z,95.56
2018-07-08T01:57:10.775Z,95.46
2018-07-08T01:58:10.618Z,95.56
2018-07-08T01:59:10.648Z,95.84
2018-07-08T02:00:10.569Z,95.51
2018-07-08T02:01:10.567Z,95.79
2018-07-08T02:02:10.528Z,95.79
2018-07-08T02:03:10.574Z,95.61
2018-07-08T02:04:10.478Z,95.75
2018-07-08T02:05:10.481Z,95.79
2018-07-08T02:06:10.436Z,94.36
2018-07-08T02:07:10.513Z,95.03
2018-07-08T02:08:10.396Z,94.55
2018-07-08T02:09:10.405Z,94.84
2018-07-08T02:10:10.353Z,95.70
2018-07-08T02:11:10.422Z,95.70
2018-07-08T02:12:10.291Z,95.70
2018-07-08T02:13:10.331Z,95.61
2018-07-08T02:14:10.255Z,96.56
2018-07-08T02:15:10.258Z,96.37
2018-07-08T02:16:10.204Z,96.75
2018-07-08T02:17:10.247Z,96.66
2018-07-08T02:18:10.150Z,96.37
2018-07-08T02:19:10.173Z,96.56
2018-07-08T02:20:10.108Z,96.56
2018-07-08T02:21:11.107Z,96.94
2018-07-08T02:22:10.059Z,96.56
2018-07-08T02:23:10.084Z,96.94
2018-07-08T02:24:10.015Z,96.75
2018-07-08T02:25:11.027Z,97.03
2018-07-08T02:26:09.966Z,96.84
2018-07-08T02:27:10.021Z,96.66
2018-07-08T02:28:09.923Z,96.46
2018-07-08T02:29:09.953Z,96.37
2018-07-08T02:30:09.870Z,97.03
2018-07-08T02:31:09.976Z,96.75
2018-07-08T02:32:09.826Z,96.94
2018-07-08T02:33:09.843Z,96.94
2018-07-08T02:34:09.772Z,97.03
2018-07-08T02:35:09.866Z,96.56
2018-07-08T02:36:09.731Z,97.03
2018-07-08T02:37:09.771Z,96.66
2018-07-08T02:38:09.693Z,96.84
2018-07-08T02:39:09.686Z,96.84
2018-07-08T02:40:09.657Z,96.66
2018-07-08T02:41:09.727Z,97.52
2018-07-08T02:42:09.605Z,96.94
2018-07-08T02:43:09.627Z,97.23
2018-07-08T02:44:09.563Z,97.13
2018-07-08T02:45:55.862Z,97.61
2018-07-08T02:46:55.824Z,97.94
2018-07-08T02:47:55.740Z,97.99
2018-07-08T02:48:55.868Z,98.18
2018-07-08T02:49:55.708Z,97.75
2018-07-08T02:50:55.732Z,98.32
2018-07-08T02:51:55.654Z,98.23
2018-07-08T02:52:55.674Z,98.71
2018-07-08T02:53:55.593Z,98.61
2018-07-08T02:54:55.657Z,98.52
2018-07-08T02:55:55.572Z,98.71
2018-07-08T02:56:55.581Z,98.90
2018-07-08T02:57:55.495Z,98.42
2018-07-08T02:58:55.485Z,99.18
2018-07-08T02:59:55.452Z,99.28
2018-07-08T03:00:55.508Z,99.37
2018-07-08T03:01:55.440Z,98.99
2018-07-08T03:02:55.463Z,99.47
2018-07-08T03:03:55.361Z,99.57
2018-07-08T03:04:55.417Z,99.37
2018-07-08T03:05:55.313Z,99.37
2018-07-08T03:06:55.364Z,99.85
2018-07-08T03:07:55.363Z,99.76
2018-07-08T03:08:55.348Z,99.76
2018-07-08T03:09:55.229Z,99.99
2018-07-08T03:10:55.270Z,99.99
2018-07-08T03:11:55.194Z,99.28
2018-07-08T03:12:55.177Z,99.37
2018-07-08T03:13:55.130Z,99.57
2018-07-08T03:14:55.213Z,99.99
2018-07-08T03:16:41.851Z,99.99
2018-07-08T03:17:40.708Z,99.99
2018-07-08T03:18:40.676Z,99.99
2018-07-08T03:19:40.816Z,99.99
2018-07-08T03:20:40.637Z,99.99
2018-07-08T03:21:40.702Z,99.99
2018-07-08T03:22:40.622Z,99.99
2018-07-08T03:23:40.736Z,99.99
2018-07-08T03:24:40.565Z,99.99
2018-07-08T03:25:40.612Z,99.99
2018-07-08T03:26:40.489Z,99.99
2018-07-08T03:27:40.532Z,99.99
2018-07-08T03:28:40.461Z,99.99
2018-07-08T03:29:40.540Z,99.99
2018-07-08T03:30:40.391Z,99.99
2018-07-08T03:31:40.449Z,99.99
2018-07-08T03:32:40.346Z,99.99
2018-07-08T03:33:26.221Z,99.95
2018-07-08T03:34:26.086Z,99.99
2018-07-08T03:35:26.121Z,99.99
2018-07-08T03:36:26.110Z,99.95
2018-07-08T03:37:25.992Z,99.99
2018-07-08T03:38:25.987Z,99.99
2018-07-08T03:39:26.063Z,99.99
2018-07-08T03:40:25.922Z,99.99
2018-07-08T03:41:25.945Z,99.99
2018-07-08T03:42:25.879Z,99.99
2018-07-08T03:43:26.007Z,99.95
2018-07-08T03:44:25.833Z,99.95
2018-07-08T03:45:25.937Z,99.99
2018-07-08T03:46:25.798Z,99.99
2018-07-08T03:47:26.882Z,99.76
2018-07-08T03:48:25.738Z,99.95
2018-07-08T03:49:25.829Z,99.66
2018-07-08T03:50:25.710Z,99.76
2018-07-08T03:52:11.420Z,99.76
2018-07-08T03:53:11.394Z,99.99
2018-07-08T03:54:11.322Z,99.99
2018-07-08T03:55:11.406Z,99.57
2018-07-08T03:56:11.276Z,99.85
2018-07-08T03:57:11.332Z,99.18
2018-07-08T03:58:11.233Z,99.57
2018-07-08T03:59:11.232Z,99.57
2018-07-08T04:00:11.177Z,99.08
2018-07-08T04:01:11.240Z,99.18
2018-07-08T04:02:11.127Z,99.66
2018-07-08T04:03:11.164Z,99.71
2018-07-08T04:04:11.085Z,99.37
2018-07-08T04:05:11.160Z,99.18
2018-07-08T04:06:11.051Z,98.23
2018-07-08T04:07:11.075Z,97.85
2018-07-08T04:08:57.294Z,98.03
2018-07-08T04:09:57.265Z,98.42
2018-07-08T04:10:57.231Z,98.71
2018-07-08T04:11:57.273Z,99.62
2018-07-08T04:12:57.184Z,99.37
2018-07-08T04:13:57.186Z,99.28
2018-07-08T04:14:57.133Z,98.57
2018-07-08T04:15:57.205Z,98.66
2018-07-08T04:16:57.070Z,98.71
2018-07-08T04:17:57.131Z,99.18
2018-07-08T04:18:57.019Z,99.23
2018-07-08T04:19:57.048Z,99.52
2018-07-08T04:21:43.323Z,99.04
2018-07-08T04:22:43.184Z,98.18
2018-07-08T04:23:43.149Z,98.18
2018-07-08T04:24:43.199Z,97.99
2018-07-08T04:25:43.114Z,98.18
2018-07-08T04:26:43.297Z,98.18
2018-07-08T04:27:43.108Z,97.99
2018-07-08T04:28:43.141Z,98.47
2018-07-08T04:29:43.046Z,98.75
2018-07-08T04:30:43.104Z,98.37
2018-07-08T04:31:43.050Z,98.28
2018-07-08T04:32:43.072Z,98.47
2018-07-08T04:33:42.978Z,97.99
2018-07-08T04:34:43.042Z,98.85
2018-07-08T04:35:42.908Z,98.28
2018-07-08T04:36:42.912Z,98.47
2018-07-08T04:37:42.827Z,98.85
2018-07-08T04:38:42.861Z,98.75
2018-07-08T04:39:42.802Z,98.75
2018-07-08T04:40:42.893Z,98.66
2018-07-08T04:41:42.768Z,98.85
2018-07-08T04:42:42.783Z,99.33
2018-07-08T04:43:42.720Z,98.57
2018-07-08T04:44:42.809Z,99.33
2018-07-08T04:45:42.632Z,98.94
2018-07-08T04:46:42.655Z,98.47
2018-07-08T04:47:42.563Z,98.85
2018-07-08T04:48:42.629Z,98.08
2018-07-08T04:49:42.510Z,98.28
2018-07-08T04:50:42.644Z,98.61
2018-07-08T04:51:42.555Z,98.52
2018-07-08T04:52:43.569Z,98.13
2018-07-08T04:53:42.418Z,97.85
2018-07-08T04:54:42.440Z,97.85
2018-07-08T04:55:42.360Z,97.85
2018-07-08T04:56:42.421Z,97.85
2018-07-08T04:57:42.328Z,98.04
2018-07-08T04:58:42.299Z,98.23
2018-07-08T04:59:42.297Z,97.47
2018-07-08T05:00:42.397Z,98.23
2018-07-08T05:01:42.251Z,98.04
2018-07-08T05:02:42.283Z,97.28
2018-07-08T05:03:42.181Z,97.08
2018-07-08T05:04:42.257Z,96.89
2018-07-08T05:05:42.123Z,96.42
2018-07-08T05:06:42.125Z,96.08
2018-07-08T05:07:42.095Z,96.37
2018-07-08T05:08:42.094Z,95.84
2018-07-08T05:09:42.059Z,96.27
2018-07-08T05:10:42.172Z,96.80
2018-07-08T05:11:41.999Z,96.32
2018-07-08T05:12:42.076Z,96.42
2018-07-08T05:13:41.932Z,96.42
2018-07-08T05:14:42.083Z,95.75
2018-07-08T05:15:41.890Z,95.51
2018-07-08T05:16:41.993Z,95.03
2018-07-08T05:17:41.840Z,95.51
2018-07-08T05:18:41.892Z,94.93
2018-07-08T05:19:41.799Z,95.32
2018-07-08T05:20:41.917Z,94.93
2018-07-08T05:21:41.756Z,94.84
2018-07-08T05:22:41.841Z,94.31
2018-07-08T05:23:41.730Z,94.12
2018-07-08T05:25:27.436Z,94.02
2018-07-08T05:26:27.511Z,93.74
2018-07-08T05:27:27.304Z,93.45
2018-07-08T05:28:27.448Z,93.35
2018-07-08T05:29:27.296Z,93.16
2018-07-08T05:30:27.344Z,93.35
2018-07-08T05:31:27.230Z,93.07
2018-07-08T05:32:27.398Z,92.88
2018-07-08T05:34:17.327Z,93.35
2018-07-08T05:35:17.441Z,93.26
2018-07-08T05:36:17.246Z,93.35
2018-07-08T05:37:17.345Z,93.35
2018-07-08T05:38:17.191Z,93.26
2018-07-08T05:39:17.265Z,92.83
2018-07-08T05:40:17.146Z,92.92
2018-07-08T05:41:17.274Z,92.35
2018-07-08T05:42:17.099Z,92.25
2018-07-08T05:43:17.198Z,92.73
2018-07-08T05:44:17.072Z,92.54
2018-07-08T05:45:17.221Z,91.87
2018-07-08T05:46:17.020Z,91.77
2018-07-08T05:47:17.102Z,92.06
2018-07-08T05:48:16.951Z,91.49
2018-07-08T05:49:17.015Z,91.77
2018-07-08T05:50:16.943Z,91.49
2018-07-08T05:51:17.039Z,90.91
2018-07-08T05:52:16.857Z,91.11
2018-07-08T05:53:16.955Z,91.49
2018-07-08T05:54:16.843Z,91.77
2018-07-08T05:55:16.978Z,92.16
2018-07-08T05:56:16.754Z,91.68
2018-07-08T05:57:02.917Z,92.44
2018-07-08T05:58:02.665Z,92.16
2018-07-08T05:59:02.747Z,92.06
2018-07-08T06:00:02.630Z,92.63
2018-07-08T06:01:02.788Z,92.92
2018-07-08T06:02:02.574Z,91.97
2018-07-08T06:03:02.684Z,91.87
2018-07-08T06:04:02.541Z,91.15
2018-07-08T06:05:02.693Z,91.05
2018-07-08T06:06:02.495Z,90.67
2018-07-08T06:07:02.602Z,90.09
2018-07-08T06:08:02.427Z,89.52
2018-07-08T06:09:02.510Z,89.62
2018-07-08T06:10:48.330Z,89.76
2018-07-08T06:11:48.122Z,89.18
2018-07-08T06:12:48.204Z,88.70
2018-07-08T06:13:48.074Z,88.70
2018-07-08T06:14:48.230Z,89.28
2018-07-08T06:15:48.030Z,88.90
2018-07-08T06:16:48.136Z,89.28
2018-07-08T06:17:47.995Z,88.80
2018-07-08T06:18:48.144Z,88.61
2018-07-08T06:20:33.859Z,89.09
2018-07-08T06:21:33.647Z,88.99
2018-07-08T06:22:33.626Z,89.18
2018-07-08T06:23:33.759Z,88.61
2018-07-08T06:24:33.579Z,89.37
2018-07-08T06:25:33.761Z,89.18
2018-07-08T06:27:19.690Z,88.51
2018-07-08T06:28:19.476Z,89.37
2018-07-08T06:29:19.436Z,88.51
2018-07-08T06:30:19.555Z,88.80
2018-07-08T06:31:19.405Z,88.13
2018-07-08T06:32:19.571Z,88.13
2018-07-08T06:33:19.351Z,87.84
2018-07-08T06:34:19.475Z,87.37
2018-07-08T06:35:19.295Z,87.46
2018-07-08T06:36:19.275Z,87.94
2018-07-08T06:37:19.272Z,87.84
2018-07-08T06:38:19.403Z,87.27
2018-07-08T06:39:19.257Z,87.17
2018-07-08T06:40:05.044Z,86.31
2018-07-08T06:41:04.917Z,86.88
2018-07-08T06:42:05.101Z,86.79
2018-07-08T06:43:04.866Z,86.74
2018-07-08T06:44:05.012Z,86.25
2018-07-08T06:45:04.814Z,86.07
2018-07-08T06:46:04.790Z,86.07
2018-07-08T06:47:04.880Z,86.25
2018-07-08T06:48:04.740Z,86.45
2018-07-08T06:49:05.810Z,86.16
2018-07-08T06:50:04.699Z,85.88
2018-07-08T06:51:06.775Z,86.02
2018-07-08T06:52:04.720Z,85.97
2018-07-08T06:53:04.728Z,86.02
2018-07-08T06:54:04.596Z,85.88
2018-07-08T06:55:04.746Z,85.01
2018-07-08T06:56:51.979Z,85.11
2018-07-08T06:57:50.873Z,84.91
2018-07-08T06:58:50.879Z,84.63
2018-07-08T06:59:50.936Z,84.63
2018-07-08T07:00:50.774Z,84.09
2018-07-08T07:01:52.892Z,83.52
2018-07-08T07:02:50.727Z,83.04
2018-07-08T07:03:50.860Z,83.61
2018-07-08T07:04:50.687Z,83.33
2018-07-08T07:05:50.777Z,83.14
2018-07-08T07:06:50.712Z,82.75
2018-07-08T07:07:50.688Z,81.70
2018-07-08T07:08:50.587Z,80.74
2018-07-08T07:09:50.700Z,80.64
2018-07-08T07:10:50.526Z,80.07
2018-07-08T07:11:50.611Z,78.63
2018-07-08T07:12:50.504Z,78.53
2018-07-08T07:13:51.539Z,78.82
2018-07-08T07:14:50.444Z,78.72
2018-07-08T07:15:51.565Z,77.00
2018-07-08T07:16:50.398Z,77.19
2018-07-08T07:18:44.391Z,79.59
2018-07-08T07:19:44.414Z,80.64
2018-07-08T07:20:44.322Z,80.64
2018-07-08T07:21:44.461Z,80.07
2018-07-08T07:22:44.280Z,79.88
2018-07-08T07:23:44.362Z,79.49
2018-07-08T07:24:44.225Z,77.48
2018-07-08T07:25:45.279Z,78.53
2018-07-08T07:26:44.189Z,78.44
2018-07-08T07:27:44.265Z,78.05
2018-07-08T07:28:44.118Z,76.32
2018-07-08T07:29:45.206Z,76.62
2018-07-08T07:30:44.108Z,76.81
2018-07-08T07:31:48.701Z,78.15
2018-07-08T07:32:44.043Z,79.39
2018-07-08T07:33:44.102Z,79.21
2018-07-08T07:34:43.979Z,78.82
2018-07-08T07:35:44.116Z,77.76
2018-07-08T07:36:43.937Z,77.71
2018-07-08T07:37:45.076Z,77.19
2018-07-08T07:38:43.876Z,77.13
2018-07-08T07:39:46.015Z,76.65
2018-07-08T07:40:43.846Z,75.89
2018-07-08T07:41:43.970Z,75.31
2018-07-08T07:42:43.816Z,75.12
2018-07-08T07:45:07.772Z,75.21
2018-07-08T07:46:11.532Z,74.64
2018-07-08T07:47:06.522Z,74.64
2018-07-08T07:48:12.564Z,73.58
2018-07-08T07:49:06.482Z,72.72
2018-07-08T07:50:07.557Z,71.19
2018-07-08T07:51:06.415Z,71.66
2018-07-08T07:52:06.557Z,72.43
2018-07-08T07:53:06.367Z,73.97
2018-07-08T07:54:07.490Z,73.77
2018-07-08T07:55:06.330Z,73.49
2018-07-08T07:56:07.401Z,72.33
2018-07-08T07:57:06.272Z,71.47
2018-07-08T07:58:12.032Z,71.76
2018-07-08T07:59:06.244Z,72.63
2018-07-08T08:00:11.004Z,73.30
2018-07-08T08:01:06.188Z,73.58
2018-07-08T08:02:06.308Z,70.61
2018-07-08T08:03:06.124Z,69.11
2018-07-08T08:04:07.267Z,67.96
2018-07-08T08:05:06.124Z,68.50
2018-07-08T08:06:06.381Z,68.73
2018-07-08T08:07:53.225Z,69.59
2018-07-08T08:08:52.981Z,68.02
2018-07-08T08:09:54.081Z,68.40
2018-07-08T08:10:52.949Z,68.30
2018-07-08T08:11:53.065Z,68.53
2018-07-08T08:12:52.878Z,68.63
2018-07-08T08:13:52.953Z,69.59
2018-07-08T08:14:52.988Z,70.55
2018-07-08T08:15:52.833Z,70.07
2018-07-08T08:16:52.907Z,69.78
2018-07-08T08:17:52.761Z,69.40
2018-07-08T08:19:39.598Z,68.53
2018-07-08T08:20:39.716Z,67.76
2018-07-08T08:21:39.523Z,68.34
2018-07-08T08:22:39.627Z,67.86
2018-07-08T08:23:39.466Z,68.44
2018-07-08T08:24:39.639Z,68.15
2018-07-08T08:25:39.432Z,67.51
2018-07-08T08:26:40.581Z,66.84
2018-07-08T08:27:39.368Z,65.78
2018-07-08T08:28:39.471Z,65.59
2018-07-08T08:29:39.321Z,65.20
2018-07-08T08:30:39.473Z,64.82
2018-07-08T08:31:39.317Z,65.59
2018-07-08T08:32:55.429Z,65.69
2018-07-08T08:33:39.234Z,65.78
2018-07-08T08:34:44.115Z,65.62
2018-07-08T08:35:39.179Z,65.33
2018-07-08T08:36:52.108Z,65.43
2018-07-08T08:37:39.139Z,65.81
2018-07-08T08:38:39.240Z,65.43
2018-07-08T08:39:39.102Z,65.05
2018-07-08T08:40:51.127Z,65.91
2018-07-08T08:41:39.068Z,64.28
2018-07-08T08:43:25.147Z,62.87
2018-07-08T08:44:25.299Z,62.68
2018-07-08T08:45:25.035Z,62.29
2018-07-08T08:46:25.152Z,62.38
2018-07-08T08:47:25.060Z,62.10
2018-07-08T08:48:25.171Z,62.29
2018-07-08T08:49:24.941Z,62.29
2018-07-08T08:50:25.070Z,63.35
2018-07-08T08:51:24.914Z,63.92
2018-07-08T08:52:24.999Z,62.77
2018-07-08T08:53:24.855Z,62.38
2018-07-08T08:54:25.020Z,59.79
2018-07-08T08:55:24.807Z,60.08
2018-07-08T08:56:25.948Z,59.99
2018-07-08T08:57:24.766Z,58.54
2018-07-08T08:58:24.733Z,59.31
2018-07-08T08:59:24.706Z,59.31
2018-07-08T09:00:24.838Z,58.92
2018-07-08T09:01:24.660Z,59.34
2018-07-08T09:02:24.645Z,59.15
2018-07-08T09:03:25.775Z,58.95
2018-07-08T09:04:24.588Z,59.15
2018-07-08T09:05:24.768Z,60.49
2018-07-08T09:06:24.557Z,59.44
2018-07-08T09:07:24.549Z,60.21
2018-07-08T09:08:24.699Z,59.92
2018-07-08T09:09:24.458Z,59.15
2018-07-08T09:10:24.603Z,57.32
2018-07-08T09:11:24.466Z,55.71
2018-07-08T09:12:24.606Z,54.56
2018-07-08T09:13:24.385Z,53.78
2018-07-08T09:15:14.476Z,54.56
2018-07-08T09:16:14.655Z,54.85
2018-07-08T09:18:09.152Z,55.81
2018-07-08T09:19:07.937Z,55.33
2018-07-08T09:20:09.263Z,54.27
2018-07-08T09:21:07.928Z,53.59
2018-07-08T09:22:08.084Z,53.91
2018-07-08T09:23:07.807Z,53.05
2018-07-08T09:24:07.866Z,53.05
2018-07-08T09:25:07.899Z,52.47
2018-07-08T09:26:07.740Z,52.08
2018-07-08T09:27:07.712Z,51.98
2018-07-08T09:28:07.715Z,52.75
2018-07-08T09:29:07.719Z,52.18
2018-07-08T09:30:07.649Z,52.11
2018-07-08T09:31:07.622Z,50.37
2018-07-08T09:32:07.668Z,49.89
2018-07-08T09:33:07.597Z,49.32
2018-07-08T09:34:07.566Z,49.32
2018-07-08T09:34:57.423Z,49.22
2018-07-08T09:35:57.465Z,48.93
2018-07-08T09:36:57.376Z,49.51
2018-07-08T09:37:57.345Z,49.70
2018-07-08T09:38:57.431Z,50.09
2018-07-08T09:39:57.302Z,48.54
2018-07-08T09:40:57.270Z,47.29
2018-07-08T09:41:57.235Z,48.54
2018-07-08T09:42:57.214Z,49.12
2018-07-08T09:43:57.279Z,48.83
2018-07-08T09:44:57.205Z,48.64
2018-07-08T09:45:57.234Z,47.87
2018-07-08T09:47:42.970Z,48.06
2018-07-08T09:48:42.913Z,48.25
2018-07-08T09:49:43.464Z,48.74
2018-07-08T09:50:42.885Z,48.16
2018-07-08T09:51:42.887Z,48.16
2018-07-08T09:52:42.949Z,48.76
2018-07-08T09:53:42.800Z,49.15
2018-07-08T09:54:42.827Z,48.57
2018-07-08T09:55:42.746Z,49.24
2018-07-08T09:56:42.846Z,47.89
2018-07-08T09:57:42.704Z,46.55
2018-07-08T09:58:47.530Z,45.58
2018-07-08T09:59:42.693Z,43.85
2018-07-08T10:00:54.519Z,43.27
2018-07-08T10:01:42.631Z,44.71
2018-07-08T10:06:21.221Z,45.39
2018-07-08T10:07:23.222Z,44.42
2018-07-08T10:08:21.096Z,44.54
2018-07-08T10:09:32.095Z,44.54
2018-07-08T10:10:21.052Z,42.52
2018-07-08T10:11:26.957Z,41.92
2018-07-08T10:12:21.005Z,41.94
2018-07-08T10:13:28.038Z,42.02
2018-07-08T10:14:20.959Z,41.72
2018-07-08T10:15:27.034Z,41.94
2018-07-08T10:16:20.952Z,41.94
2018-07-08T10:17:22.986Z,42.23
2018-07-08T10:18:20.886Z,42.25
2018-07-08T10:19:22.912Z,41.48
2018-07-08T10:20:20.862Z,42.73
2018-07-08T10:21:20.923Z,42.35
2018-07-08T10:22:20.801Z,41.86
2018-07-08T10:23:20.756Z,41.48
2018-07-08T10:24:20.726Z,42.15
2018-07-08T10:25:20.731Z,42.25
2018-07-08T10:26:20.687Z,42.63
2018-07-08T10:27:20.659Z,44.18
2018-07-08T10:29:06.548Z,42.93
2018-07-08T10:30:06.540Z,42.35
2018-07-08T10:31:06.472Z,43.31
2018-07-08T10:32:06.473Z,42.83
2018-07-08T10:33:06.428Z,41.96
2018-07-08T10:34:06.412Z,41.86
2018-07-08T10:35:06.534Z,41.96
2018-07-08T10:36:06.379Z,42.15
2018-07-08T10:37:06.335Z,42.25
2018-07-08T10:38:06.523Z,43.21
2018-07-08T10:39:06.293Z,45.04
2018-07-08T10:40:06.281Z,43.04
2018-07-08T10:41:06.482Z,42.27
2018-07-08T10:42:06.223Z,42.08
2018-07-08T10:43:06.236Z,41.98
2018-07-08T10:44:06.235Z,42.18
2018-07-08T10:45:06.205Z,41.13
2018-07-08T10:46:06.289Z,40.36
2018-07-08T10:47:06.113Z,40.44
2018-07-08T10:48:06.284Z,40.44
2018-07-08T10:49:06.070Z,40.45
2018-07-08T10:50:06.227Z,39.28
2018-07-08T10:51:06.037Z,39.87
2018-07-08T10:52:06.040Z,39.78
2018-07-08T10:53:05.980Z,39.39
2018-07-08T10:54:05.974Z,40.17
2018-07-08T10:55:05.936Z,40.05
2018-07-08T10:56:05.916Z,39.95
2018-07-08T10:57:05.953Z,40.72
2018-07-08T10:58:05.879Z,40.72
2018-07-08T10:59:05.864Z,40.24
2018-07-08T11:00:05.844Z,39.11
2018-07-08T11:01:05.965Z,39.29
2018-07-08T11:02:05.778Z,39.78
2018-07-08T11:03:05.753Z,40.26
2018-07-08T11:04:05.781Z,40.36
2018-07-08T11:05:05.709Z,39.11
2018-07-08T11:06:05.696Z,38.81
2018-07-08T11:07:05.678Z,39.49
2018-07-08T11:08:05.652Z,39.22
2018-07-08T11:09:05.651Z,38.74
2018-07-08T11:10:05.610Z,38.74
2018-07-08T11:11:05.616Z,39.51
2018-07-08T11:12:51.392Z,39.51
2018-07-08T11:13:51.412Z,38.45
2018-07-08T11:14:51.324Z,38.16
2018-07-08T11:15:55.871Z,37.19
2018-07-08T11:16:51.266Z,37.00
2018-07-08T11:17:51.327Z,38.45
2018-07-08T11:18:51.224Z,38.35
2018-07-08T11:19:51.258Z,38.54
2018-07-08T11:20:51.260Z,38.56
2018-07-08T11:21:51.167Z,38.46
2018-07-08T11:22:51.134Z,38.46
2018-07-08T11:23:51.165Z,38.85
2018-07-08T11:24:51.233Z,38.46
2018-07-08T11:25:51.070Z,38.76
2018-07-08T11:26:51.044Z,38.56
2018-07-08T11:27:51.094Z,38.85
2018-07-08T11:29:37.325Z,38.95
2018-07-08T11:30:37.226Z,38.85
2018-07-08T11:31:37.231Z,37.70
2018-07-08T11:32:37.178Z,37.02
2018-07-08T11:33:37.208Z,37.30
2018-07-08T11:34:37.137Z,37.30
2018-07-08T11:35:37.250Z,37.98
2018-07-08T11:36:37.086Z,37.62
2018-07-08T11:37:37.140Z,37.40
2018-07-08T11:38:37.086Z,37.40
2018-07-08T11:39:37.050Z,36.34
2018-07-08T11:40:37.046Z,36.44
2018-07-08T11:41:36.976Z,37.21
2018-07-08T11:42:36.949Z,38.85
2018-07-08T11:43:36.975Z,39.72
2018-07-08T11:44:36.909Z,40.11
2018-07-08T11:45:36.984Z,40.40
2018-07-08T11:46:36.871Z,39.92
2018-07-08T11:47:36.893Z,39.82
2018-07-08T11:48:36.821Z,38.68
2018-07-08T11:49:36.919Z,36.74
2018-07-08T11:50:36.813Z,37.90
2018-07-08T11:51:36.826Z,38.39
2018-07-08T11:52:36.739Z,39.64
2018-07-08T11:53:36.856Z,39.84
2018-07-08T11:54:36.695Z,40.32
2018-07-08T11:55:36.739Z,39.84
2018-07-08T11:56:36.677Z,40.52
2018-07-08T11:57:36.754Z,40.61
2018-07-08T11:58:36.619Z,39.84
2018-07-08T11:59:36.677Z,38.58
2018-07-08T12:00:36.556Z,38.00
2018-07-08T12:01:36.552Z,37.90
2018-07-08T12:02:36.521Z,38.97
2018-07-08T12:03:36.487Z,39.67
2018-07-08T12:04:36.483Z,40.34
2018-07-08T12:05:36.522Z,40.42
2018-07-08T12:06:36.436Z,39.18
2018-07-08T12:08:22.594Z,39.86
2018-07-08T12:09:22.540Z,40.53
2018-07-08T12:10:22.529Z,41.50
2018-07-08T12:11:22.627Z,41.41
2018-07-08T12:12:22.484Z,41.70
2018-07-08T12:13:22.570Z,41.31
2018-07-08T12:14:22.448Z,41.21
2018-07-08T12:15:22.569Z,41.72
2018-07-08T12:16:22.390Z,41.52
2018-07-08T12:17:22.404Z,42.37
2018-07-08T12:18:22.344Z,42.37
2018-07-08T12:19:22.319Z,43.15
2018-07-08T12:20:22.346Z,42.57
2018-07-08T12:21:22.388Z,42.86
2018-07-08T12:22:22.253Z,44.21
2018-07-08T12:23:22.237Z,44.50
2018-07-08T12:24:22.236Z,45.28
2018-07-08T12:25:22.309Z,45.66
2018-07-08T12:26:22.171Z,45.95
2018-07-08T12:27:22.217Z,45.47
2018-07-08T12:28:22.135Z,44.89
2018-07-08T12:29:22.107Z,44.70
2018-07-08T12:30:22.086Z,44.60
2018-07-08T12:31:22.146Z,44.79
2018-07-08T12:32:22.083Z,44.04
2018-07-08T12:33:22.126Z,43.55
2018-07-08T12:35:08.144Z,43.05
2018-07-08T12:36:08.053Z,42.57
2018-07-08T12:37:08.049Z,42.37
2018-07-08T12:38:08.118Z,43.24
2018-07-08T12:39:07.992Z,44.70
2018-07-08T12:40:08.075Z,44.79
2018-07-08T12:41:07.944Z,44.89
2018-07-08T12:42:07.982Z,45.76
2018-07-08T12:43:07.895Z,45.66
2018-07-08T12:44:09.050Z,45.57
2018-07-08T12:45:07.863Z,43.92
2018-07-08T12:46:07.872Z,43.34
2018-07-08T12:47:07.835Z,42.68
2018-07-08T12:48:07.886Z,43.92
2018-07-08T12:49:07.776Z,43.85
2018-07-08T12:50:08.833Z,43.65
2018-07-08T12:51:07.745Z,43.85
2018-07-08T12:52:07.813Z,43.34
2018-07-08T12:53:07.694Z,44.21
2018-07-08T12:54:07.721Z,44.23
2018-07-08T12:55:07.651Z,44.43
2018-07-08T12:56:08.650Z,44.33
2018-07-08T12:57:07.653Z,44.53
2018-07-08T12:58:07.641Z,43.85
2018-07-08T12:59:07.583Z,43.95
2018-07-08T13:00:07.650Z,44.81
2018-07-08T13:01:07.525Z,45.10
2018-07-08T13:02:07.564Z,46.08
2018-07-08T13:03:07.484Z,45.66
2018-07-08T13:04:07.565Z,45.10
2018-07-08T13:05:07.433Z,45.30
2018-07-08T13:06:07.476Z,45.01
2018-07-08T13:07:57.780Z,45.40
2018-07-08T13:08:58.873Z,45.30
2018-07-08T13:09:57.693Z,45.78
2018-07-08T13:10:57.868Z,45.78
2018-07-08T13:11:57.662Z,45.78
2018-07-08T13:13:03.617Z,45.78
2018-07-08T13:13:57.607Z,45.98
2018-07-08T13:14:58.713Z,45.78
2018-07-08T13:15:57.565Z,45.40
2018-07-08T13:17:04.663Z,45.40